Terminal Aerodrome Forecast
Issued by NWS Cleveland, OH

Home | Current Version | Previous Version | Graphics & Text | Print | Product List | Glossary On
Versions: 1 2 3 4 5 6 7 8 9 10 11 12 13 14 15 16 17 18 19 20 21 22 23 24 25
736
FTUS41 KCLE 291140
TAFCLE
TAF
KCLE 291140Z 2912/3018 05008KT P6SM SCT015 BKN025
     FM291400 03008KT P6SM SCT250
     FM291700 01010KT P6SM SKC
     FM300000 VRB04KT P6SM SCT250=

USA.gov is the U.S. government's official web portal to all federal, state and local government web resources and services.